Time;durP1;ratioP1;P1;durP2;ratioP2;P2;SDS_P1;SDS_P2;PMS_P1;PMS_P2;Temp;Humidity;BMP_temperature;BMP_pressure;BME280_temperature;BME280_humidity;BME280_pressure;Samples;Min_cycle;Max_cycle;Signal;HPM_P1;HPM_P2
2023/03/08 00:00:05;;;;;;;2.85;1.98;;;-1.10;99.90;;;;;;4993144;28;20130;-87
2023/03/08 00:02:31;;;;;;;2.95;1.83;;;-1.10;99.90;;;;;;4992658;28;20120;-88
2023/03/08 00:04:57;;;;;;;4.53;2.00;;;-1.10;99.90;;;;;;4991915;28;20472;-88
2023/03/08 00:07:24;;;;;;;2.92;1.65;;;-1.20;99.90;;;;;;4992705;28;20043;-80
2023/03/08 00:09:50;;;;;;;3.90;1.70;;;-1.20;99.90;;;;;;4992616;28;20144;-88
2023/03/08 00:12:18;;;;;;;6.55;1.90;;;-1.20;99.90;;;;;;4975733;28;20109;-81
2023/03/08 00:14:44;;;;;;;5.97;1.50;;;-1.20;99.90;;;;;;4992549;28;20133;-88
2023/03/08 00:17:11;;;;;;;;;;;-1.30;99.90;;;;;;4993350;28;20058;-87
2023/03/08 00:19:37;;;;;;;2.60;1.58;;;-0.70;99.90;;;;;;4991561;28;19928;-88
2023/03/08 00:22:03;;;;;;;5.35;2.08;;;-1.30;99.90;;;;;;4992791;28;20071;-89
2023/03/08 00:24:29;;;;;;;5.97;1.73;;;-1.30;99.90;;;;;;4991462;28;20046;-87
2023/03/08 00:26:55;;;;;;;3.15;1.67;;;-1.30;99.90;;;;;;4993027;28;20050;-88
2023/03/08 00:29:20;;;;;;;4.10;1.77;;;-1.30;99.90;;;;;;4992941;28;20065;-87
2023/03/08 00:31:46;;;;;;;2.85;1.70;;;-1.30;99.90;;;;;;4992302;28;20619;-87
2023/03/08 00:34:11;;;;;;;4.20;1.90;;;-1.30;99.90;;;;;;4991663;28;20046;-88
2023/03/08 00:36:37;;;;;;;5.05;1.90;;;-1.30;99.90;;;;;;4975429;28;20054;-89
2023/03/08 00:39:03;;;;;;;4.32;2.10;;;-1.30;99.90;;;;;;4991502;28;20073;-88
2023/03/08 00:41:29;;;;;;;5.13;2.10;;;-1.10;99.90;;;;;;4991817;28;20046;-87
2023/03/08 00:43:54;;;;;;;5.40;2.45;;;-1.30;99.90;;;;;;4992883;28;20051;-89
2023/03/08 00:46:20;;;;;;;5.03;2.35;;;-1.30;99.90;;;;;;4992768;28;20440;-89
2023/03/08 00:48:46;;;;;;;5.70;2.95;;;-1.30;99.90;;;;;;4992176;28;20058;-90
2023/03/08 00:51:14;;;;;;;6.05;2.95;;;-1.20;99.90;;;;;;4992432;28;20137;-89
2023/03/08 00:53:40;;;;;;;6.72;2.78;;;-1.20;99.90;;;;;;4991666;28;20050;-88
2023/03/08 00:56:06;;;;;;;4.65;2.67;;;-1.20;99.90;;;;;;4991950;28;20502;-87
2023/03/08 00:58:32;;;;;;;6.35;2.90;;;-1.20;99.90;;;;;;4992153;28;20103;-87
2023/03/08 01:00:59;;;;;;;5.97;2.47;;;-1.20;99.90;;;;;;4992360;28;20046;-87
2023/03/08 01:03:25;;;;;;;6.57;2.58;;;-1.20;99.90;;;;;;4992437;28;20052;-87
2023/03/08 01:05:53;;;;;;;6.35;2.70;;;-1.20;99.90;;;;;;4974897;28;20046;-89
2023/03/08 01:08:21;;;;;;;5.70;2.70;;;-1.30;99.90;;;;;;4991913;28;20535;-88
2023/03/08 01:10:56;;;;;;;6.57;3.22;;;-1.30;99.90;;;;;;4991458;28;20054;-89
2023/03/08 01:13:24;;;;;;;7.68;2.97;;;-1.30;99.90;;;;;;4991397;28;20369;-88
2023/03/08 01:15:49;;;;;;;5.45;2.80;;;-1.30;99.90;;;;;;4993377;28;20629;-88
2023/03/08 01:18:15;;;;;;;5.82;2.85;;;-1.30;99.90;;;;;;4995932;28;20050;-88
2023/03/08 01:20:41;;;;;;;5.47;2.63;;;-0.80;99.90;;;;;;4995622;28;20042;-86
2023/03/08 01:23:07;;;;;;;6.28;2.53;;;-1.30;99.90;;;;;;4994675;28;20042;-87
2023/03/08 01:25:33;;;;;;;9.82;2.63;;;-1.40;99.90;;;;;;4994572;28;20046;-80
2023/03/08 01:27:59;;;;;;;5.15;2.85;;;-1.40;99.90;;;;;;4978843;28;20096;-85
2023/03/08 01:30:25;;;;;;;5.35;2.42;;;-1.50;99.90;;;;;;4995457;28;20069;-85
2023/03/08 01:32:51;;;;;;;5.35;2.58;;;-0.80;99.90;;;;;;4995186;28;20125;-86
2023/03/08 01:35:16;;;;;;;4.13;2.55;;;-1.50;99.90;;;;;;4995743;28;20510;-87
2023/03/08 01:37:42;;;;;;;7.78;2.60;;;-1.60;99.90;;;;;;4993059;28;20086;-87
2023/03/08 01:40:13;;;;;;;5.10;3.00;;;-1.60;99.90;;;;;;4995326;28;20623;-86
2023/03/08 01:42:39;;;;;;;6.35;2.95;;;-1.50;99.90;;;;;;4995217;28;20047;-88
2023/03/08 01:45:43;;;;;;;5.95;2.70;;;-1.50;99.90;;;;;;4994530;28;20081;-88
2023/03/08 01:48:09;;;;;;;5.43;2.63;;;-1.50;99.90;;;;;;4995249;28;20058;-86
2023/03/08 01:50:35;;;;;;;;;;;-1.50;99.90;;;;;;4995624;28;20054;-81
2023/03/08 01:53:01;;;;;;;6.10;2.95;;;-1.50;99.90;;;;;;4994506;28;19929;-88
2023/03/08 01:55:26;;;;;;;5.63;2.88;;;-1.50;99.90;;;;;;4994926;28;20534;-87
2023/03/08 01:57:54;;;;;;;8.10;3.25;;;-1.50;99.90;;;;;;4993847;28;20049;-87
2023/03/08 02:00:22;;;;;;;6.25;3.17;;;-1.50;99.90;;;;;;4994166;28;20522;-86
2023/03/08 02:02:51;;;;;;;8.32;3.30;;;-1.50;99.90;;;;;;4994853;28;20565;-87
2023/03/08 02:05:18;;;;;;;7.88;3.33;;;-1.50;99.90;;;;;;4995254;28;20081;-87
2023/03/08 02:07:44;;;;;;;8.38;3.90;;;-1.60;99.90;;;;;;4994189;28;20093;-87
2023/03/08 02:10:11;;;;;;;6.45;3.05;;;-1.60;99.90;;;;;;4994762;28;20046;-86
2023/03/08 02:12:38;;;;;;;7.78;3.50;;;-1.60;99.90;;;;;;4994977;28;20050;-80
2023/03/08 02:15:07;;;;;;;7.00;3.50;;;-1.60;99.90;;;;;;4994951;28;20057;-87
2023/03/08 02:17:41;;;;;;;7.05;3.45;;;-1.60;99.90;;;;;;4994872;28;20046;-86
2023/03/08 02:20:13;;;;;;;7.22;3.42;;;-1.70;99.90;;;;;;4993494;28;20217;-87
2023/03/08 02:22:44;;;;;;;9.60;4.15;;;-1.70;99.90;;;;;;4994252;28;20065;-80
2023/03/08 02:25:18;;;;;;;8.25;3.53;;;-1.80;99.90;;;;;;4994520;28;20043;-85
2023/03/08 02:27:44;;;;;;;7.45;3.58;;;-1.80;99.90;;;;;;4993066;28;20046;-88
2023/03/08 02:30:12;;;;;;;14.40;3.65;;;-1.90;99.90;;;;;;4993677;28;20054;-86
2023/03/08 02:32:38;;;;;;;8.82;3.78;;;-1.90;99.90;;;;;;4994585;28;20053;-86
2023/03/08 02:35:04;;;;;;;;;;;-1.90;99.90;;;;;;4993735;28;20057;-87
2023/03/08 02:37:31;;;;;;;7.88;3.55;;;-2.00;99.90;;;;;;4994054;28;20020;-85
2023/03/08 02:39:57;;;;;;;8.20;4.10;;;-2.00;99.90;;;;;;4993774;28;20061;-86
2023/03/08 02:42:23;;;;;;;8.00;4.13;;;-2.00;99.90;;;;;;4994351;28;20047;-85
2023/03/08 02:44:48;;;;;;;14.95;4.50;;;-2.00;99.90;;;;;;4993235;28;20043;-87
2023/03/08 02:47:14;;;;;;;9.02;4.38;;;-2.00;99.90;;;;;;4993699;28;20112;-85
2023/03/08 02:49:40;;;;;;;;;;;-2.00;99.90;;;;;;4993661;28;20062;-79
2023/03/08 02:52:06;;;;;;;11.23;4.50;;;-2.00;99.90;;;;;;4994299;28;20325;-86
2023/03/08 02:54:32;;;;;;;9.10;4.63;;;-2.00;99.90;;;;;;4993435;28;20050;-87
2023/03/08 02:56:58;;;;;;;11.02;4.53;;;-2.00;99.90;;;;;;4993876;28;20050;-84
2023/03/08 02:59:23;;;;;;;12.07;4.15;;;-2.10;99.90;;;;;;4994186;28;20077;-87
2023/03/08 03:01:49;;;;;;;12.63;5.25;;;-2.10;99.90;;;;;;4992540;28;20120;-87
2023/03/08 03:04:15;;;;;;;9.75;4.25;;;-2.10;99.90;;;;;;4994042;28;20046;-87
2023/03/08 03:06:40;;;;;;;10.35;4.93;;;-2.10;99.90;;;;;;4994207;28;20054;-84
2023/03/08 03:09:07;;;;;;;11.48;5.05;;;-1.80;99.90;;;;;;4992129;28;20042;-83
2023/03/08 03:11:33;;;;;;;10.70;4.88;;;-2.10;99.90;;;;;;4993589;28;20046;-85
2023/03/08 03:13:59;;;;;;;11.82;5.38;;;-2.10;99.90;;;;;;4992605;28;20138;-87
2023/03/08 03:16:26;;;;;;;10.65;5.50;;;-2.10;99.90;;;;;;4993914;28;20046;-86
2023/03/08 03:18:54;;;;;;;10.82;5.05;;;-2.10;99.90;;;;;;4993347;28;20047;-88
2023/03/08 03:21:20;;;;;;;12.35;5.50;;;-2.10;99.90;;;;;;4993896;28;20483;-87
2023/03/08 03:23:46;;;;;;;10.68;5.18;;;-2.10;99.90;;;;;;4992794;28;20042;-86
2023/03/08 03:26:17;;;;;;;10.88;5.25;;;-2.00;99.90;;;;;;4993301;28;20391;-87
2023/03/08 03:28:43;;;;;;;12.60;5.63;;;-2.00;99.90;;;;;;4993731;28;20125;-80
2023/03/08 03:31:19;;;;;;;;;;;-2.10;99.90;;;;;;4992683;28;20477;-87
2023/03/08 03:33:46;;;;;;;10.45;5.07;;;-2.00;99.90;;;;;;4993488;28;19945;-80
2023/03/08 03:36:15;;;;;;;10.68;5.38;;;-2.00;99.90;;;;;;4992503;28;20392;-87
2023/03/08 03:38:41;;;;;;;14.85;5.90;;;-2.00;99.90;;;;;;4992323;28;20061;-88
2023/03/08 03:41:12;;;;;;;10.25;5.43;;;-2.00;99.90;;;;;;4992801;28;20042;-88
2023/03/08 03:43:38;;;;;;;14.43;5.72;;;-2.00;99.90;;;;;;4993198;28;20046;-86
2023/03/08 03:46:06;;;;;;;11.40;5.50;;;-2.00;99.90;;;;;;4993120;28;20455;-87
2023/03/08 03:48:35;;;;;;;18.27;5.65;;;-2.00;99.90;;;;;;4992755;28;20060;-87
2023/03/08 03:51:04;;;;;;;11.60;5.72;;;-2.00;99.90;;;;;;4992928;28;20063;-86
2023/03/08 03:53:32;;;;;;;11.15;5.32;;;-2.00;99.90;;;;;;4991697;28;20058;-84
2023/03/08 03:56:06;;;;;;;11.70;5.32;;;-2.00;99.90;;;;;;4991395;28;20498;-87
2023/03/08 03:58:32;;;;;;;11.93;5.60;;;-2.00;99.90;;;;;;4993122;28;20133;-87
2023/03/08 04:00:58;;;;;;;14.25;5.93;;;-2.00;99.90;;;;;;4992690;28;20073;-86
2023/03/08 04:03:24;;;;;;;11.65;5.60;;;-2.00;99.90;;;;;;4993083;28;20447;-88
2023/03/08 04:05:49;;;;;;;;;;;-2.00;99.90;;;;;;4993027;28;20050;-83
2023/03/08 04:08:15;;;;;;;12.57;5.70;;;-1.90;99.90;;;;;;4991760;28;20260;-88
2023/03/08 04:10:41;;;;;;;13.73;7.05;;;-1.90;99.90;;;;;;4992650;28;20042;-88
2023/03/08 04:13:08;;;;;;;;;;;-1.90;99.90;;;;;;4993032;28;20042;-87
2023/03/08 04:15:33;;;;;;;11.52;5.80;;;-1.90;99.90;;;;;;4992184;28;19922;-86
2023/03/08 04:17:59;;;;;;;16.30;6.22;;;-1.90;99.90;;;;;;4992506;28;20050;-88
2023/03/08 04:20:24;;;;;;;8.75;4.72;;;-1.90;99.90;;;;;;4993273;28;20038;-89
2023/03/08 04:22:50;;;;;;;12.55;5.53;;;-1.80;99.90;;;;;;4992346;28;20134;-81
2023/03/08 04:25:16;;;;;;;10.93;5.07;;;-1.80;99.90;;;;;;4992592;28;20086;-89
2023/03/08 04:27:42;;;;;;;8.32;4.53;;;-1.80;99.90;;;;;;4992862;28;20475;-89
2023/03/08 04:30:08;;;;;;;15.77;5.57;;;-1.70;99.90;;;;;;4992746;28;20051;-87
2023/03/08 04:32:34;;;;;;;10.48;5.05;;;-1.80;99.90;;;;;;4991676;28;20046;-87
2023/03/08 04:34:59;;;;;;;9.27;4.53;;;-1.80;99.90;;;;;;4992543;28;20161;-89
2023/03/08 04:37:25;;;;;;;9.93;5.20;;;-1.80;99.90;;;;;;4992585;28;20089;-89
2023/03/08 04:39:51;;;;;;;12.43;4.93;;;-1.80;99.90;;;;;;4992346;28;20046;-81
2023/03/08 04:42:17;;;;;;;16.83;5.03;;;-1.80;99.90;;;;;;4992742;28;20607;-89
2023/03/08 04:44:42;;;;;;;9.40;4.68;;;-1.90;99.90;;;;;;4992931;28;20046;-89
2023/03/08 04:47:08;;;;;;;8.60;4.55;;;-1.80;99.90;;;;;;4991155;28;20133;-85
2023/03/08 04:49:34;;;;;;;8.68;4.82;;;-1.90;99.90;;;;;;4992667;28;20066;-89
2023/03/08 04:51:59;;;;;;;11.10;5.68;;;-1.80;99.90;;;;;;4991239;28;20058;-86
2023/03/08 04:54:26;;;;;;;10.23;4.43;;;-1.80;99.90;;;;;;4990856;28;20046;-89
2023/03/08 04:56:51;;;;;;;7.97;4.22;;;-1.80;99.90;;;;;;4992660;28;20054;-88
2023/03/08 04:59:17;;;;;;;10.43;4.45;;;-1.80;99.90;;;;;;4992310;28;20093;-88
2023/03/08 05:01:43;;;;;;;9.52;4.78;;;-1.80;99.90;;;;;;4992635;28;20039;-88
2023/03/08 05:04:10;;;;;;;;;;;-1.70;99.90;;;;;;4992292;28;20403;-86
2023/03/08 05:06:36;;;;;;;9.95;4.50;;;-1.70;99.90;;;;;;4991545;28;20355;-87
2023/03/08 05:09:02;;;;;;;7.90;4.18;;;-1.70;99.90;;;;;;4991329;28;20160;-88
2023/03/08 05:11:28;;;;;;;11.95;4.07;;;-1.70;99.90;;;;;;4992159;28;20034;-86
2023/03/08 05:13:54;;;;;;;;;;;-1.60;99.90;;;;;;4992528;28;20495;-89
2023/03/08 05:16:21;;;;;;;13.90;4.57;;;-1.60;99.90;;;;;;4992124;28;19941;-86
2023/03/08 05:18:47;;;;;;;8.85;4.82;;;-1.60;99.90;;;;;;4991475;28;20054;-89
2023/03/08 05:21:15;;;;;;;11.27;5.20;;;-1.60;99.90;;;;;;4992058;28;20539;-89
2023/03/08 05:23:41;;;;;;;11.80;5.03;;;-1.60;99.90;;;;;;4991157;28;20411;-89
2023/03/08 05:26:09;;;;;;;11.05;5.13;;;-0.80;99.90;;;;;;4991843;28;20046;-91
2023/03/08 05:28:36;;;;;;;9.88;4.95;;;-1.70;99.90;;;;;;4991202;28;20101;-87
2023/03/08 05:31:06;;;;;;;8.43;4.65;;;-1.70;99.90;;;;;;4991950;28;20476;-90
2023/03/08 05:33:32;;;;;;;8.35;4.22;;;-1.70;99.90;;;;;;4992311;28;20217;-91
2023/03/08 05:35:58;;;;;;;13.50;5.20;;;-1.70;99.90;;;;;;4992527;28;20061;-82
2023/03/08 05:38:24;;;;;;;7.85;4.28;;;-1.70;99.90;;;;;;4991808;28;20384;-91
2023/03/08 05:40:50;;;;;;;;;;;-1.80;99.90;;;;;;4991463;28;20050;-89
2023/03/08 05:43:17;;;;;;;9.38;4.40;;;-1.80;99.90;;;;;;4992210;28;20016;-90
2023/03/08 05:45:43;;;;;;;9.00;4.55;;;-1.50;99.90;;;;;;4992165;28;20054;-89
2023/03/08 05:48:09;;;;;;;;;;;-1.70;99.90;;;;;;4992110;28;20058;-89
2023/03/08 05:50:37;;;;;;;8.35;4.47;;;-1.70;99.90;;;;;;4991305;28;19929;-89
2023/03/08 05:53:03;;;;;;;9.10;4.47;;;-1.60;99.90;;;;;;4991056;28;20058;-88
2023/03/08 05:55:29;;;;;;;;;;;-1.60;99.90;;;;;;4992315;28;20169;-90
2023/03/08 05:57:54;;;;;;;10.57;4.45;;;-1.60;99.90;;;;;;4992165;28;20390;-88
2023/03/08 06:00:20;;;;;;;10.48;4.50;;;-1.60;99.90;;;;;;4990725;28;20244;-89
2023/03/08 06:02:46;;;;;;;;;;;-1.60;99.90;;;;;;4994725;28;20480;-88
2023/03/08 06:05:11;;;;;;;7.25;3.67;;;-1.50;99.90;;;;;;4995197;28;19922;-89
2023/03/08 06:07:38;;;;;;;14.15;4.72;;;-1.50;99.90;;;;;;4995010;28;20052;-88
2023/03/08 06:10:04;;;;;;;11.27;5.30;;;-1.60;99.90;;;;;;4994583;28;20061;-82
2023/03/08 06:12:30;;;;;;;8.63;4.30;;;-1.60;99.90;;;;;;4995050;28;20133;-86
2023/03/08 06:14:55;;;;;;;11.18;5.03;;;-1.60;99.90;;;;;;4994466;28;20090;-88
2023/03/08 06:17:21;;;;;;;10.65;4.53;;;-1.20;99.90;;;;;;4994779;28;20042;-87
2023/03/08 06:19:47;;;;;;;7.97;4.25;;;-1.10;99.90;;;;;;4995221;28;20137;-87
2023/03/08 06:22:15;;;;;;;9.65;5.07;;;-1.50;99.90;;;;;;4994578;28;20443;-85
2023/03/08 06:24:41;;;;;;;15.63;7.55;;;-1.60;99.90;;;;;;4993421;28;20066;-89
2023/03/08 06:27:07;;;;;;;12.60;5.93;;;-1.50;99.90;;;;;;4994818;28;20047;-86
2023/03/08 06:29:32;;;;;;;9.60;5.07;;;-1.60;99.90;;;;;;4994005;28;20088;-90
2023/03/08 06:31:58;;;;;;;13.82;4.75;;;-1.50;99.90;;;;;;4995423;28;20082;-88
2023/03/08 06:34:24;;;;;;;12.25;5.82;;;-1.50;99.90;;;;;;4994267;28;20304;-89
2023/03/08 06:36:50;;;;;;;12.60;5.80;;;-1.30;99.90;;;;;;4993944;28;20170;-90
2023/03/08 06:39:16;;;;;;;11.43;5.18;;;-1.50;99.90;;;;;;4993731;28;20128;-89
2023/03/08 06:41:42;;;;;;;12.57;5.07;;;-1.50;99.90;;;;;;4994170;28;20046;-91
2023/03/08 06:44:08;;;;;;;10.20;5.28;;;-1.50;99.90;;;;;;4994481;28;20050;-81
2023/03/08 06:46:34;;;;;;;9.73;5.43;;;-1.50;99.90;;;;;;4994055;28;20042;-90
2023/03/08 06:49:00;;;;;;;11.32;5.07;;;-1.50;99.90;;;;;;4994914;28;20062;-89
2023/03/08 06:51:25;;;;;;;;;;;-1.30;99.90;;;;;;4994755;28;20057;-90
2023/03/08 06:53:51;;;;;;;12.52;5.70;;;-1.50;99.90;;;;;;4994193;28;19922;-90
2023/03/08 06:56:17;;;;;;;13.23;5.78;;;-1.50;99.90;;;;;;4993026;28;20046;-89
2023/03/08 06:58:43;;;;;;;10.57;5.85;;;-1.40;99.90;;;;;;4994630;28;20126;-88
2023/03/08 07:01:09;;;;;;;27.65;7.38;;;-1.40;99.90;;;;;;4994266;28;20074;-80
2023/03/08 07:03:36;;;;;;;19.02;7.75;;;-1.40;99.90;;;;;;4994016;28;20050;-88
2023/03/08 07:06:08;;;;;;;17.38;8.73;;;-1.40;99.90;;;;;;4993280;28;20054;-89
2023/03/08 07:08:35;;;;;;;17.08;7.90;;;-1.40;99.90;;;;;;4993341;28;20053;-88
2023/03/08 07:11:00;;;;;;;19.10;8.00;;;-1.40;99.90;;;;;;4993680;28;20057;-89
2023/03/08 07:13:28;;;;;;;17.95;7.85;;;-1.40;99.90;;;;;;4992601;28;20046;-88
2023/03/08 07:15:54;;;;;;;15.02;7.63;;;-1.40;99.90;;;;;;4994256;28;20086;-88
2023/03/08 07:18:20;;;;;;;16.90;8.45;;;-1.40;99.90;;;;;;4993468;28;20054;-88
2023/03/08 07:20:59;;;;;;;18.30;9.05;;;-1.40;99.90;;;;;;4992679;28;20049;-88
2023/03/08 07:23:25;;;;;;;17.40;7.50;;;-1.40;99.90;;;;;;4992009;28;20050;-86
2023/03/08 07:25:51;;;;;;;24.92;8.93;;;-1.40;99.90;;;;;;4992305;28;20113;-70
2023/03/08 07:28:17;;;;;;;22.73;9.60;;;-1.30;99.90;;;;;;4993381;28;20050;-73
2023/03/08 07:30:47;;;;;;;17.20;7.60;;;-1.30;99.90;;;;;;4993523;28;20464;-75
2023/03/08 07:33:14;;;;;;;19.13;9.32;;;-1.00;99.90;;;;;;4992649;28;20486;-83
2023/03/08 07:35:39;;;;;;;;;;;-0.30;99.90;;;;;;4960907;28;20069;-79
2023/03/08 07:38:05;;;;;;;16.63;8.45;;;-0.70;99.90;;;;;;4993100;28;20367;-86
2023/03/08 07:40:30;;;;;;;23.23;8.50;;;-1.00;99.90;;;;;;4992779;28;20296;-77
2023/03/08 07:42:56;;;;;;;26.65;10.57;;;-1.00;99.90;;;;;;4993498;28;20043;-82
2023/03/08 07:45:22;;;;;;;28.02;10.98;;;-0.40;99.90;;;;;;4993075;28;20054;-82
2023/03/08 07:47:52;;;;;;;45.72;11.50;;;-1.00;99.90;;;;;;4975433;28;20513;-82
2023/03/08 07:50:18;;;;;;;30.45;10.52;;;-1.00;99.90;;;;;;4991997;28;20057;-82
2023/03/08 07:52:44;;;;;;;41.65;10.07;;;-1.10;99.90;;;;;;4992733;28;20125;-82
2023/03/08 07:55:10;;;;;;;43.50;10.77;;;-1.20;99.90;;;;;;4992795;28;20138;-82
2023/03/08 07:57:36;;;;;;;51.63;12.25;;;-1.20;99.90;;;;;;4991815;28;20089;-82
2023/03/08 08:00:06;;;;;;;;;;;-1.20;99.90;;;;;;4992664;28;20391;-82
2023/03/08 08:02:33;;;;;;;42.00;11.68;;;-1.30;99.90;;;;;;4992780;28;19922;-82
2023/03/08 08:04:59;;;;;;;47.13;11.48;;;-1.30;99.90;;;;;;4992903;28;20058;-82
2023/03/08 08:07:25;;;;;;;36.08;10.65;;;-1.30;99.90;;;;;;4991251;28;20050;-82
2023/03/08 08:09:50;;;;;;;35.28;11.70;;;-1.30;99.90;;;;;;4991424;28;20555;-82
2023/03/08 08:12:16;;;;;;;44.05;11.32;;;-1.30;99.90;;;;;;4991459;28;20488;-82
2023/03/08 08:14:42;;;;;;;38.70;10.82;;;-1.30;99.90;;;;;;4991595;28;20107;-82
2023/03/08 08:17:08;;;;;;;31.52;9.80;;;-1.20;99.90;;;;;;4991500;28;20057;-82
2023/03/08 08:19:33;;;;;;;41.55;10.82;;;-1.10;99.90;;;;;;4991384;28;20537;-82
2023/03/08 08:21:59;;;;;;;37.88;9.70;;;-1.20;99.90;;;;;;4992792;28;20050;-82
2023/03/08 08:24:26;;;;;;;28.73;10.73;;;-1.00;99.90;;;;;;4991323;28;20057;-83
2023/03/08 08:26:52;;;;;;;36.55;10.57;;;-1.10;99.90;;;;;;4992575;28;20057;-86
2023/03/08 08:29:18;;;;;;;;;;;-1.10;99.90;;;;;;4992673;28;20053;-82
2023/03/08 08:31:43;;;;;;;27.83;9.98;;;-0.80;99.90;;;;;;4991606;28;19921;-81
2023/03/08 08:34:09;;;;;;;22.20;8.98;;;-1.10;99.90;;;;;;4992582;28;20046;-80
2023/03/08 08:36:35;;;;;;;33.72;11.15;;;-1.10;99.90;;;;;;4992235;28;20110;-79
2023/03/08 08:39:01;;;;;;;30.40;10.90;;;-1.00;99.90;;;;;;4991453;28;20109;-85
2023/03/08 08:41:28;;;;;;;;;;;-0.50;99.90;;;;;;4991637;28;20047;-84
2023/03/08 08:43:58;;;;;;;35.65;10.95;;;-1.00;99.90;;;;;;4992291;28;19928;-89
2023/03/08 08:46:24;;;;;;;28.58;9.45;;;-0.90;99.90;;;;;;4992241;28;20678;-87
2023/03/08 08:48:50;;;;;;;32.40;10.85;;;-0.90;99.90;;;;;;4990691;28;20059;-88
2023/03/08 08:51:16;;;;;;;33.17;11.25;;;-0.40;99.90;;;;;;4992039;28;20060;-87
2023/03/08 08:53:43;;;;;;;31.92;10.85;;;-0.80;99.90;;;;;;4990779;28;20050;-87
2023/03/08 08:56:18;;;;;;;44.38;11.63;;;-0.80;99.90;;;;;;4990726;28;20057;-84
2023/03/08 08:58:46;;;;;;;25.97;9.77;;;-0.70;99.90;;;;;;4992395;28;20049;-89
2023/03/08 09:01:18;;;;;;;32.75;9.80;;;-0.70;99.90;;;;;;4990744;28;20290;-89
2023/03/08 09:03:45;;;;;;;31.50;11.35;;;-0.50;99.90;;;;;;4990666;28;20096;-89
2023/03/08 09:06:11;;;;;;;20.95;9.20;;;-0.50;99.90;;;;;;4991953;28;20698;-82
2023/03/08 09:08:36;;;;;;;27.33;9.77;;;-0.40;99.90;;;;;;4991641;28;20050;-89
2023/03/08 09:11:04;;;;;;;36.60;11.25;;;-0.40;99.90;;;;;;4992051;28;20053;-89
2023/03/08 09:13:31;;;;;;;44.00;9.48;;;-0.30;99.90;;;;;;4990759;28;20057;-92
2023/03/08 09:15:56;;;;;;;28.40;10.20;;;-0.30;99.90;;;;;;4992022;28;20057;-93
2023/03/08 09:18:22;;;;;;;31.15;10.95;;;-0.20;99.90;;;;;;4990997;28;20050;-86
2023/03/08 09:20:48;;;;;;;25.60;9.63;;;0.20;99.90;;;;;;4991420;28;20455;-91
2023/03/08 09:23:13;;;;;;;27.85;10.48;;;-0.10;99.90;;;;;;4974668;28;20057;-90
2023/03/08 09:25:39;;;;;;;26.13;9.80;;;-0.10;99.90;;;;;;4990789;28;20048;-83
2023/03/08 09:28:05;;;;;;;26.33;9.80;;;0.10;99.90;;;;;;4991044;28;20105;-88
2023/03/08 09:30:31;;;;;;;24.80;10.10;;;0.00;99.90;;;;;;4991470;28;20050;-80
2023/03/08 09:32:58;;;;;;;24.00;8.90;;;0.30;99.90;;;;;;4991596;28;20050;-82
2023/03/08 09:35:23;;;;;;;24.73;9.68;;;0.60;99.90;;;;;;4974286;28;20561;-81
2023/03/08 09:37:49;;;;;;;28.80;9.57;;;0.10;99.90;;;;;;4993311;28;20043;-82
2023/03/08 09:40:25;;;;;;;30.27;10.98;;;1.00;99.90;;;;;;4993682;28;20050;-81
2023/03/08 09:42:53;;;;;;;31.33;10.70;;;0.20;99.90;;;;;;4995550;28;20491;-83
2023/03/08 09:45:27;;;;;;;27.05;10.88;;;0.20;99.90;;;;;;4995488;28;20046;-84
2023/03/08 09:48:13;;;;;;;25.95;10.43;;;0.40;99.90;;;;;;4994862;28;20153;-86
2023/03/08 09:50:46;;;;;;;25.38;9.68;;;0.40;99.90;;;;;;4994946;28;20104;-86
2023/03/08 09:53:14;;;;;;;25.58;9.20;;;0.40;99.90;;;;;;4994950;28;20105;-86
2023/03/08 09:55:50;;;;;;;23.83;8.93;;;0.50;99.90;;;;;;4994391;28;20100;-83
2023/03/08 09:58:18;;;;;;;26.52;9.63;;;0.50;99.90;;;;;;4995085;28;20451;-87
2023/03/08 10:00:45;;;;;;;23.40;9.07;;;0.50;99.90;;;;;;4994017;28;20467;-86
2023/03/08 10:03:20;;;;;;;22.88;9.38;;;0.60;99.90;;;;;;4993430;28;20058;-82
2023/03/08 10:06:09;;;;;;;27.92;10.07;;;0.60;99.90;;;;;;4993523;28;20054;-82
2023/03/08 10:08:45;;;;;;;28.52;9.32;;;0.60;99.90;;;;;;4992820;28;20050;-83
2023/03/08 10:11:25;;;;;;;23.77;8.80;;;0.70;99.90;;;;;;4994586;28;20407;-83
2023/03/08 10:13:55;;;;;;;27.95;9.93;;;0.70;99.90;;;;;;4993616;28;20054;-83
2023/03/08 10:16:39;;;;;;;25.23;9.52;;;0.70;99.90;;;;;;4994740;28;20046;-83
2023/03/08 10:19:20;;;;;;;22.30;8.40;;;0.70;99.90;;;;;;4994831;28;20125;-83
2023/03/08 10:21:46;;;;;;;26.30;10.15;;;1.30;99.90;;;;;;4994236;28;20133;-82
2023/03/08 10:24:17;;;;;;;;;;;0.80;99.90;;;;;;4994680;28;20042;-84
2023/03/08 10:26:44;;;;;;;25.25;8.93;;;0.80;99.90;;;;;;4993840;28;19929;-82
2023/03/08 10:29:13;;;;;;;23.05;9.32;;;1.30;99.90;;;;;;4992916;28;20069;-86
2023/03/08 10:31:42;;;;;;;38.95;10.85;;;1.10;99.90;;;;;;4994092;28;20051;-83
2023/03/08 10:34:12;;;;;;;28.48;9.13;;;1.20;99.90;;;;;;4994497;28;20116;-84
2023/03/08 10:36:58;;;;;;;24.88;8.05;;;1.30;99.90;;;;;;4994015;28;20595;-83
2023/03/08 10:39:24;;;;;;;21.60;8.90;;;1.40;99.90;;;;;;4993738;28;20049;-84
2023/03/08 10:42:14;;;;;;;19.38;8.30;;;1.40;99.90;;;;;;4994056;28;20046;-84
2023/03/08 10:44:51;;;;;;;23.13;8.82;;;2.50;99.90;;;;;;4989165;28;20066;-86
2023/03/08 10:47:23;;;;;;;23.83;8.65;;;1.60;99.90;;;;;;4994317;28;20078;-84
2023/03/08 10:50:04;;;;;;;22.45;9.95;;;1.70;99.90;;;;;;4994126;28;20050;-84
2023/03/08 10:52:30;;;;;;;21.52;8.68;;;1.80;99.90;;;;;;4992753;28;20138;-80
2023/03/08 10:55:04;;;;;;;22.95;8.68;;;1.90;99.90;;;;;;4993432;28;20129;-80
2023/03/08 10:57:31;;;;;;;22.65;8.25;;;1.90;99.90;;;;;;4993746;28;20520;-79
2023/03/08 11:00:20;;;;;;;21.60;9.40;;;2.10;99.90;;;;;;4992714;28;20050;-79
2023/03/08 11:02:47;;;;;;;24.50;8.98;;;2.20;99.90;;;;;;4985990;28;20105;-80
2023/03/08 11:05:19;;;;;;;25.10;9.35;;;2.20;99.90;;;;;;4993651;28;20049;-85
2023/03/08 11:07:53;;;;;;;25.17;9.15;;;2.30;99.90;;;;;;4992217;28;20054;-80
2023/03/08 11:10:22;;;;;;;26.70;9.73;;;2.40;99.90;;;;;;4993633;28;20050;-86
2023/03/08 11:13:05;;;;;;;25.42;9.65;;;2.50;99.90;;;;;;4993593;28;20053;-80
2023/03/08 11:15:34;;;;;;;25.73;9.15;;;2.60;99.90;;;;;;4993920;28;20046;-80
2023/03/08 11:18:15;;;;;;;25.92;9.52;;;2.60;99.90;;;;;;4993162;28;20579;-83
2023/03/08 11:20:52;;;;;;;28.98;10.70;;;2.70;99.90;;;;;;4992314;28;20104;-81
2023/03/08 11:23:27;;;;;;;24.70;8.80;;;2.70;99.90;;;;;;4993306;28;20058;-80
2023/03/08 11:26:15;;;;;;;22.27;7.75;;;2.80;99.90;;;;;;4992567;28;20050;-81
2023/03/08 11:28:41;;;;;;;20.58;7.68;;;2.80;99.90;;;;;;4993332;28;20050;-82
2023/03/08 11:31:11;;;;;;;18.13;7.10;;;2.90;99.90;;;;;;4992252;28;20373;-82
2023/03/08 11:34:16;;;;;;;21.20;8.93;;;2.90;99.90;;;;;;4993063;28;20653;-79
2023/03/08 11:36:59;;;;;;;23.92;8.73;;;2.90;99.90;;;;;;4993134;28;20092;-83
2023/03/08 11:39:44;;;;;;;18.00;7.30;;;2.90;99.90;;;;;;4991297;28;20054;-83
2023/03/08 11:42:26;;;;;;;25.13;8.25;;;3.00;99.90;;;;;;4992965;28;20104;-84
2023/03/08 11:44:59;;;;;;;30.58;9.60;;;3.00;99.90;;;;;;4992166;28;20403;-85
2023/03/08 11:48:00;;;;;;;33.53;11.02;;;3.00;99.90;;;;;;4992398;28;20496;-85
2023/03/08 11:50:36;;;;;;;36.67;12.45;;;3.00;99.90;;;;;;4992515;28;20050;-85
2023/03/08 11:53:21;;;;;;;42.60;13.20;;;3.00;99.90;;;;;;4990676;28;20050;-86
2023/03/08 11:56:12;;;;;;;45.00;14.05;;;3.10;99.90;;;;;;4991728;28;20050;-85
2023/03/08 11:58:54;;;;;;;45.35;11.30;;;3.10;99.90;;;;;;4992975;28;20050;-83
2023/03/08 12:01:28;;;;;;;41.40;13.40;;;3.10;99.90;;;;;;4992855;28;20133;-82
2023/03/08 12:04:10;;;;;;;40.75;12.02;;;3.20;99.90;;;;;;4992434;28;20056;-85
2023/03/08 12:06:41;;;;;;;35.45;11.88;;;3.30;99.90;;;;;;4991311;28;20042;-84
2023/03/08 12:09:19;;;;;;;26.85;9.77;;;3.30;99.90;;;;;;4992213;28;20046;-84
2023/03/08 12:12:15;;;;;;;31.33;10.05;;;3.30;99.90;;;;;;4991256;28;20042;-83
2023/03/08 12:14:57;;;;;;;37.97;11.88;;;3.40;99.90;;;;;;4991723;28;20062;-81
2023/03/08 12:17:29;;;;;;;25.98;9.38;;;3.40;99.90;;;;;;4992335;28;20184;-87
2023/03/08 12:19:55;;;;;;;29.35;9.82;;;3.40;99.90;;;;;;4992241;28;20168;-82
2023/03/08 12:22:46;;;;;;;28.85;9.02;;;3.40;99.90;;;;;;4991159;28;20133;-84
2023/03/08 12:25:30;;;;;;;32.55;9.48;;;3.30;99.90;;;;;;4992198;28;20092;-86
2023/03/08 12:28:00;;;;;;;22.05;7.60;;;3.30;99.90;;;;;;4992097;28;20069;-82
2023/03/08 12:30:58;;;;;;;25.92;8.27;;;3.30;99.90;;;;;;4992421;28;20058;-83
2023/03/08 12:33:25;;;;;;;27.17;9.50;;;3.40;99.90;;;;;;4990314;28;20042;-81
2023/03/08 12:35:52;;;;;;;25.65;8.13;;;3.40;99.90;;;;;;4992058;28;20062;-83
2023/03/08 12:38:18;;;;;;;23.35;7.72;;;3.40;99.90;;;;;;4991976;28;20046;-84
2023/03/08 12:40:52;;;;;;;25.42;7.30;;;3.40;99.90;;;;;;4991967;28;20116;-79
2023/03/08 12:43:18;;;;;;;23.08;7.88;;;3.40;99.90;;;;;;4992395;28;20096;-83
2023/03/08 12:45:47;;;;;;;28.25;9.75;;;3.40;99.90;;;;;;4992317;28;20082;-83
2023/03/08 12:48:36;;;;;;;24.40;8.45;;;3.50;99.90;;;;;;4991872;28;20094;-83
2023/03/08 12:51:08;;;;;;;21.13;6.22;;;3.50;99.90;;;;;;4991798;28;20054;-83
2023/03/08 12:53:54;;;;;;;20.23;7.65;;;3.50;99.90;;;;;;4991907;28;20046;-83